• Join FlightAware (Why Join?)
  • Login
  • US Flag 
04:59PM EDT


 

Airport Tracker/Info


-or-


 

Live Flight TrackerFlight Track Log ✈ UAL4543 ✈ 25-Apr-2013 ✈ KEWR - KDSM

Flight Track Log - Related Links

Times and Time Zones

All times are in EDT time to prevent confusion due to time zone crossing. See the UAL4543 flight status page for this flight to view local times or setup timezone preferences in your user account.

Time Position Orientation Groundspeed Altitude Reporting Facility
EDT Latitude Longitude Course Direction KTS MPH feet Rate Location/Type
10:36PM 40.8334 -74.8276 287° West  Level FlightAware Approximate
10:37PM 40.8667 -74.9577 270° West  Level FlightAware Approximate
10:38PM 40.8948 -75.0896 303° West  Level FlightAware Approximate
10:39PM 40.9000 -75.2119 270° West  Level FlightAware Approximate
10:40PM 40.8667 -75.3381 270° West  Level FlightAware Approximate
10:41PM 40.8370 -75.4648 255° West  Level FlightAware Approximate
10:42PM 40.8119 -75.6002 254° West  Level FlightAware Approximate
10:43PM 40.7830 -75.7347 252° West  Level FlightAware Approximate
10:44PM 40.7499 -75.8674 252° West  Level FlightAware Approximate
10:45PM 40.7167 -75.9989 270° West  Level FlightAware Approximate
10:46PM 40.6820 -76.1296 248° West  Level FlightAware Approximate
10:47PM 40.6545 -76.2603 282° West  Level FlightAware Approximate
10:48PM 40.6772 -76.3966 282° West  Level FlightAware Approximate
10:49PM 40.7000 -76.5329 282° West  Level FlightAware Approximate
10:50PM 40.7215 -76.6696 280° West  Level FlightAware Approximate
10:51PM 40.7395 -76.8073 280° West  Level FlightAware Approximate
10:52PM 40.7574 -76.9450 280° West  Level FlightAware Approximate
10:53PM 40.7783 -77.0820 283° West  Level FlightAware Approximate
10:54PM 40.8023 -77.2181 283° West  Level FlightAware Approximate
10:55PM 40.8236 -77.3550 279° West  Level FlightAware Approximate
10:56PM 40.8413 -77.4930 280° West  Level FlightAware Approximate
10:57PM 40.8597 -77.6308 280° West  Level FlightAware Approximate
10:58PM 40.8763 -77.7690 278° West  Level FlightAware Approximate
10:59PM 40.8917 -77.9075 278° West  Level FlightAware Approximate
11:00PM 40.9123 -78.0447 285° West  Level FlightAware Approximate
11:01PM 40.9333 -78.1819 281° West  Level FlightAware Approximate
11:02PM 40.9529 -78.3196 281° West  Level FlightAware Approximate
11:03PM 40.9713 -78.4576 279° West  Level FlightAware Approximate
11:04PM 40.9869 -78.5963 279° West  Level FlightAware Approximate
11:05PM 41.0024 -78.7351 278° West  Level FlightAware Approximate
11:06PM 41.0177 -78.8739 278° West  Level FlightAware Approximate
11:07PM 41.0328 -79.0127 278° West  Level FlightAware Approximate
11:08PM 41.0477 -79.1517 278° West  Level FlightAware Approximate
11:09PM 41.0625 -79.2907 278° West  Level FlightAware Approximate
11:10PM 41.0771 -79.4297 278° West  Level FlightAware Approximate
11:11PM 41.0915 -79.5688 278° West  Level FlightAware Approximate
11:12PM 41.1058 -79.7080 278° West  Level FlightAware Approximate
11:13PM 41.1199 -79.8473 278° West  Level FlightAware Approximate
11:14PM 41.1339 -79.9866 278° West  Level FlightAware Approximate
11:15PM 41.1476 -80.1259 278° West  Level FlightAware Approximate
11:16PM 41.1653 -80.2645 280° West  Level FlightAware Approximate
11:17PM 41.1837 -80.4030 278° West  Level FlightAware Approximate
11:18PM 41.1983 -80.5423 278° West  Level FlightAware Approximate
11:19PM 41.2127 -80.6817 278° West  Level FlightAware Approximate
11:20PM 41.2270 -80.8211 278° West  Level FlightAware Approximate
11:21PM 41.2411 -80.9606 278° West  Level FlightAware Approximate
11:22PM 41.2550 -81.1002 278° West  Level FlightAware Approximate
11:23PM 41.2686 -81.2399 277° West  Level FlightAware Approximate
11:24PM 41.2822 -81.3795 277° West  Level FlightAware Approximate
11:25PM 41.2955 -81.5193 277° West  Level FlightAware Approximate
11:26PM 41.3081 -81.6592 277° West  Level FlightAware Approximate
11:27PM 41.3203 -81.7992 277° West  Level FlightAware Approximate
11:28PM 41.3323 -81.9392 277° West  Level FlightAware Approximate
11:29PM 41.3441 -82.0793 276° West  Level FlightAware Approximate
11:30PM 41.3553 -82.2195 276° West  Level FlightAware Approximate
11:31PM 41.3658 -82.3599 276° West  Level FlightAware Approximate
11:32PM 41.3761 -82.5003 276° West  Level FlightAware Approximate
11:33PM 41.3834 -82.6409 270° West  Level FlightAware Approximate
11:34PM 41.3862 -82.7818 274° West  Level FlightAware Approximate
11:35PM 41.3942 -82.9225 274° West  Level FlightAware Approximate
11:36PM 41.4022 -83.0632 274° West  Level FlightAware Approximate
11:37PM 41.4099 -83.2039 274° West  Level FlightAware Approximate
11:38PM 41.4175 -83.3447 274° West  Level FlightAware Approximate
11:39PM 41.4249 -83.4855 274° West  Level FlightAware Approximate
11:40PM 41.4321 -83.6264 274° West  Level FlightAware Approximate
11:41PM 41.4374 -83.7674 273° West  Level FlightAware Approximate
11:42PM 41.4422 -83.9084 273° West  Level FlightAware Approximate
11:43PM 41.4468 -84.0495 273° West  Level FlightAware Approximate
11:44PM 41.4515 -84.1906 273° West  Level FlightAware Approximate
11:45PM 41.4565 -84.3317 273° West  Level FlightAware Approximate
11:46PM 41.4613 -84.4727 273° West  Level FlightAware Approximate
11:47PM 41.4660 -84.6139 273° West  Level FlightAware Approximate
11:48PM 41.4839 -84.7527 272° West  Level FlightAware Approximate
11:49PM 41.4883 -84.8939 272° West  Level FlightAware Approximate
11:50PM 41.4925 -85.0350 272° West  Level FlightAware Approximate
11:51PM 41.4964 -85.1763 272° West  Level FlightAware Approximate
11:52PM 41.5003 -85.3175 272° West  Level FlightAware Approximate
11:53PM 41.5039 -85.4588 272° West  Level FlightAware Approximate
11:54PM 41.5074 -85.6000 272° West  Level FlightAware Approximate
11:55PM 41.5107 -85.7413 272° West  Level FlightAware Approximate
11:56PM 41.5139 -85.8826 272° West  Level FlightAware Approximate
11:57PM 41.5167 -86.0239 270° West  Level FlightAware Approximate
11:58PM 41.5167 -86.1653 270° West  Level FlightAware Approximate
11:59PM 41.5188 -86.3066 272° West  Level FlightAware Approximate
12:00AM 41.5221 -86.4479 272° West  Level FlightAware Approximate
12:01AM 41.5253 -86.5892 272° West  Level FlightAware Approximate
12:02AM 41.5282 -86.7306 272° West  Level FlightAware Approximate
12:03AM 41.5310 -86.8719 272° West  Level FlightAware Approximate
12:04AM 41.5333 -87.0133 270° West  Level FlightAware Approximate
12:05AM 41.5334 -87.1547 270° West  Level FlightAware Approximate
12:06AM 41.5338 -87.2961 270° West  Level FlightAware Approximate
12:07AM 41.5342 -87.4375 270° West  Level FlightAware Approximate
12:08AM 41.5345 -87.5789 270° West  Level FlightAware Approximate
12:09AM 41.5347 -87.7203 270° West  Level FlightAware Approximate
12:10AM 41.5346 -87.8617 270° West  Level FlightAware Approximate
12:11AM 41.5344 -88.0031 270° West  Level FlightAware Approximate
12:12AM 41.5340 -88.1445 270° West  Level FlightAware Approximate
12:13AM 41.5335 -88.2859 270° West  Level FlightAware Approximate
12:14AM 41.5336 -88.4273 270° West  Level FlightAware Approximate
12:15AM 41.5337 -88.5687 270° West  Level FlightAware Approximate
12:16AM 41.5337 -88.7101 270° West  Level FlightAware Approximate
12:17AM 41.5335 -88.8515 270° West  Level FlightAware Approximate
12:18AM 41.5335 -88.9930 270° West  Level FlightAware Approximate
12:19AM 41.5335 -89.1344 270° West  Level FlightAware Approximate
12:20AM 41.5334 -89.2757 270° West  Level FlightAware Approximate
12:21AM 41.5337 -89.4172 270° West  Level FlightAware Approximate
12:22AM 41.5341 -89.5586 270° West  Level FlightAware Approximate
12:23AM 41.5344 -89.7000 270° West  Level FlightAware Approximate
12:24AM 41.5345 -89.8414 270° West  Level FlightAware Approximate
12:25AM 41.5344 -89.9828 270° West  Level FlightAware Approximate
12:26AM 41.5342 -90.1242 270° West  Level FlightAware Approximate
12:27AM 41.5337 -90.2656 270° West  Level FlightAware Approximate
12:28AM 41.5334 -90.4070 270° West  Level FlightAware Approximate
12:29AM 41.5334 -90.5484 270° West  Level FlightAware Approximate
12:30AM 41.5334 -90.6898 270° West  Level FlightAware Approximate
12:31AM 41.5283 -90.8309 265° West  Level FlightAware Approximate
12:32AM 41.5195 -90.9718 265° West  Level FlightAware Approximate
12:33AM 41.5167 -91.1130 270° West  Level FlightAware Approximate
12:34AM 41.5167 -91.2544 270° West  Level FlightAware Approximate
12:35AM 41.5167 -91.3958 270° West  Level FlightAware Approximate
12:36AM 41.5167 -91.5371 270° West  Level FlightAware Approximate
12:37AM 41.5167 -91.6785 270° West  Level FlightAware Approximate
12:38AM 41.5167 -91.8199 270° West  Level FlightAware Approximate
12:39AM 41.5167 -91.9612 270° West  Level FlightAware Approximate
12:40AM 41.5169 -92.1026 270° West  Level FlightAware Approximate
12:41AM 41.5171 -92.2440 270° West  Level FlightAware Approximate
12:42AM 41.5171 -92.3853 270° West  Level FlightAware Approximate
12:43AM 41.5169 -92.5267 270° West  Level FlightAware Approximate
12:44AM 41.5167 -92.6681 270° West  Level FlightAware Approximate
12:45AM 41.5167 -92.8094 270° West  Level FlightAware Approximate
12:46AM 41.5217 -92.9505 275° West  Level FlightAware Approximate
12:47AM 41.5299 -93.0915 275° West  Level FlightAware Approximate
12:48AM 41.5334 -93.2327 270° West  Level FlightAware Approximate
12:49AM 41.5333 -93.3741 270° West  Level FlightAware Approximate
12:50AM 41.5334 -93.5155 270° West  Level FlightAware Approximate
12:51AM 41.5333 -93.6500 270° West  Level FlightAware Approximate
12:52AM 41.5340 -93.6631 270° West  Level Estimated
12:53AM 41.5340 -93.6631 270° West  Level Estimated
12:54AM 41.5340 -93.6631 270° West  Level Estimated
12:55AM 41.5340 -93.6631 270° West  Level Estimated
12:56AM 41.5340 -93.6631 270° West  Level Estimated
12:57AM 41.5340 -93.6631 270° West  Level Estimated
12:58AM 41.5340 -93.6631 270° West  Level Estimated
12:59AM 41.5340 -93.6631 270° West  Level Estimated
01:00AM 41.5340 -93.6631 270° West  Level Estimated
01:01AM 41.5340 -93.6631 270° West  Level Estimated
01:02AM 41.5340 -93.6631 270° West  Level Estimated
01:03AM 41.5340 -93.6631 270° West  Level Estimated
01:04AM 41.5340 -93.6631 270° West  Level Estimated
01:05AM 41.5340 -93.6631 270° West  Level Estimated
01:06AM 41.5340 -93.6631 270° West  Level Estimated
01:07AM 41.5340 -93.6631 270° West  Level Estimated